Terminal Aerodrome Forecast
Issued by NWS Shreveport, LA

Home | Current Version | Previous Version | Text Only | Print | Product List | Glossary On
Versions: 1 2 3 4 5 6 7 8 9 10 11 12 13 14 15 16 17 18 19
277
FTUS44 KSHV 290540
TAFGGG
TAF
KGGG 290540Z 2906/3006 VRB03KT P6SM FEW070 SCT150 BKN250
     FM291500 07007KT P6SM SCT050 SCT150 BKN250
     FM292000 08008G14KT P6SM VCTS BKN045CB BKN130
      TEMPO 2920/2923 -TSRA BKN045CB
     FM300000 08006KT P6SM OVC100=

USA.gov is the U.S. government's official web portal to all federal, state and local government web resources and services.